Indian River, MI

2:07 AM EDT on September 05, 2015 (GMT -0400)
Grandstaff Home - Walloon Lake | | Change Station
CLOSE
Current Station
Personal Weather Station
Location: Petoskey, MI
Elevation: 733 ft
Nearby Weather Stations

Elev 733 ft 45.31 °N, 84.97 °W | Updated 3 seconds ago

Mostly Cloudy
Mostly Cloudy
68.4 °F
Feels Like 68.4 °F
N
3.0
Wind Variable Wind from West
Gusts 3.0 mph

Today
High -- | Low -- °F
--% Chance of Precip.
Yesterday
High -- | Low -- °F
Precip. -- in
7:04 AM 8:08 PM
Waning Gibbous, 52% visible
Pressure 30.08 in
Visibility 6.0 miles
Clouds Mostly Cloudy 7500 ft
Overcast 11000 ft
Dew Point 67 °F
Humidity 95%
Rainfall 0.03 in
Snow Depth Not available.
UV 0 out of 12
Pollen 10.10 out of 12
Air Quality Not available.
Flu Activity Not available.
METAR KPLN 050554Z AUTO 00000KT 6SM BR BKN075 OVC110 18/18 A3008 RMK AO2 SLP185 T01830178 10233 20183 TSNO $
Pressure 30.08 in
Visibility 6.0 miles
Clouds Mostly Cloudy 7500 ft
Overcast 11000 ft
Dew Point 67 °F
Humidity 95%
Rainfall 0.03 in
Snow Depth Not available.
UV 0 out of 12
Pollen 10.10 out of 12
Air Quality Not available.
Flu Activity Not available.
METAR KPLN 050554Z AUTO 00000KT 6SM BR BKN075 OVC110 18/18 A3008 RMK AO2 SLP185 T01830178 10233 20183 TSNO $
Nowcast | as of 2:00 am EDT on September 5, 2015

At 3 am...partly cloudy. Areas of fog. Temperature 66. Southeast winds 5 mph. At 5 am...partly cloudy. Areas of fog. Temperature 66. Light winds. At 7 am...mostly cloudy. Areas of fog. Temperature 66. Light winds. At 9 am...mostly cloudy. Slight chance of showers and isolated thunderstorms. Temperature 68. Light winds.

×

10-Day Weather Forecast

×

Almanac

Astronomy

Sep. 05, 2015 Rise Set
Actual Time
Civil Twilight
Nautical Twilight
Astronomical Twilight
Moon
Length of Visible Light
Length of Day
Tomorrow will be .
, % of the Moon is Illuminated

Today's Extremes

State Highs State Lows

Community

WunderPhotos

Upload Photos

1,852,431 photos uploaded!

WunderBlogs® & News

Nearby

Air Quality

  Air Quality AQ Index Pollutant
Not available.

Snow Depth

Station Depth Elevation

Earthquake Activity

City Distance Mag. Time & Date
Minimum magnitude displayed is 2.5.

Coastal Water Temperatures

Place Temperature

Stations

Nearby Weather Stations

Station Location Temp. Windchill Dew Point Humidity Wind Precip. Elev Updated Type